sensor_id;sensor_type;location;lat;lon;timestamp;pressure;altitude;pressure_sealevel;temperature;humidity
9690;BME280;4884;42.614;23.340;2024-02-28T00:00:36;93034.88;;;5.96;84.72
9690;BME280;4884;42.614;23.340;2024-02-28T00:03:02;92944.75;;;5.37;84.92
9690;BME280;4884;42.614;23.340;2024-02-28T00:05:27;93041.75;;;5.87;84.88
9690;BME280;4884;42.614;23.340;2024-02-28T00:07:53;93029.97;;;5.81;84.15
9690;BME280;4884;42.614;23.340;2024-02-28T00:10:18;93019.91;;;5.98;82.79
9690;BME280;4884;42.614;23.340;2024-02-28T00:12:43;93046.94;;;6.15;82.81
9690;BME280;4884;42.614;23.340;2024-02-28T00:15:09;93058.53;;;5.98;84.90
9690;BME280;4884;42.614;23.340;2024-02-28T00:17:39;93062.66;;;5.99;84.61
9690;BME280;4884;42.614;23.340;2024-02-28T00:20:08;93014.63;;;5.76;84.07
9690;BME280;4884;42.614;23.340;2024-02-28T00:22:35;92967.41;;;5.35;85.39
9690;BME280;4884;42.614;23.340;2024-02-28T00:25:02;93013.25;;;5.65;86.03
9690;BME280;4884;42.614;23.340;2024-02-28T00:27:27;92950.88;;;5.22;85.19
9690;BME280;4884;42.614;23.340;2024-02-28T00:29:53;93032.13;;;5.61;86.57
9690;BME280;4884;42.614;23.340;2024-02-28T00:32:18;93030.94;;;5.53;87.82
9690;BME280;4884;42.614;23.340;2024-02-28T00:34:43;93034.00;;;5.55;88.09
9690;BME280;4884;42.614;23.340;2024-02-28T00:37:09;93042.59;;;5.32;88.83
9690;BME280;4884;42.614;23.340;2024-02-28T00:39:34;92917.25;;;4.87;89.10
9690;BME280;4884;42.614;23.340;2024-02-28T00:42:00;93028.19;;;5.50;88.07
9690;BME280;4884;42.614;23.340;2024-02-28T00:44:25;92920.53;;;4.74;88.15
9690;BME280;4884;42.614;23.340;2024-02-28T00:46:50;93039.72;;;5.52;88.76
9690;BME280;4884;42.614;23.340;2024-02-28T00:49:16;93020.44;;;5.50;87.84
9690;BME280;4884;42.614;23.340;2024-02-28T00:51:41;92865.16;;;4.44;88.61
9690;BME280;4884;42.614;23.340;2024-02-28T00:54:06;93058.13;;;5.59;88.23
9690;BME280;4884;42.614;23.340;2024-02-28T00:56:33;93053.63;;;5.51;89.07
9690;BME280;4884;42.614;23.340;2024-02-28T00:58:59;92891.03;;;4.85;85.59
9690;BME280;4884;42.614;23.340;2024-02-28T01:01:24;92854.41;;;4.61;85.42
9690;BME280;4884;42.614;23.340;2024-02-28T01:03:50;92911.81;;;4.88;86.28
9690;BME280;4884;42.614;23.340;2024-02-28T01:06:15;92927.59;;;4.82;86.55
9690;BME280;4884;42.614;23.340;2024-02-28T01:08:41;93034.56;;;5.52;86.89
9690;BME280;4884;42.614;23.340;2024-02-28T01:11:07;93039.47;;;5.35;88.84
9690;BME280;4884;42.614;23.340;2024-02-28T01:13:32;92943.22;;;4.67;89.38
9690;BME280;4884;42.614;23.340;2024-02-28T01:15:57;92895.38;;;4.33;88.72
9690;BME280;4884;42.614;23.340;2024-02-28T01:18:25;93034.88;;;5.32;89.12
9690;BME280;4884;42.614;23.340;2024-02-28T01:20:50;93047.69;;;5.37;89.20
9690;BME280;4884;42.614;23.340;2024-02-28T01:23:17;92937.88;;;4.63;89.30
9690;BME280;4884;42.614;23.340;2024-02-28T01:25:42;93042.91;;;5.44;87.66
9690;BME280;4884;42.614;23.340;2024-02-28T01:28:08;93026.91;;;5.15;88.95
9690;BME280;4884;42.614;23.340;2024-02-28T01:30:33;93041.75;;;5.18;90.05
9690;BME280;4884;42.614;23.340;2024-02-28T01:32:59;92937.38;;;4.42;90.72
9690;BME280;4884;42.614;23.340;2024-02-28T01:35:24;93063.59;;;5.20;90.40
9690;BME280;4884;42.614;23.340;2024-02-28T01:37:49;92907.88;;;4.21;90.13
9690;BME280;4884;42.614;23.340;2024-02-28T01:40:15;93068.97;;;5.24;90.60
9690;BME280;4884;42.614;23.340;2024-02-28T01:42:40;93022.09;;;4.90;90.85
9690;BME280;4884;42.614;23.340;2024-02-28T01:45:06;92909.72;;;4.16;91.38
9690;BME280;4884;42.614;23.340;2024-02-28T01:47:34;93091.63;;;5.22;91.36
9690;BME280;4884;42.614;23.340;2024-02-28T01:49:59;92934.88;;;4.19;91.64
9690;BME280;4884;42.614;23.340;2024-02-28T01:52:25;92919.38;;;4.05;92.02
9690;BME280;4884;42.614;23.340;2024-02-28T01:54:50;92906.56;;;4.00;91.71
9690;BME280;4884;42.614;23.340;2024-02-28T01:57:16;92920.81;;;4.11;91.39
9690;BME280;4884;42.614;23.340;2024-02-28T01:59:41;93060.41;;;4.91;92.17
9690;BME280;4884;42.614;23.340;2024-02-28T02:02:07;92898.88;;;4.00;91.30
9690;BME280;4884;42.614;23.340;2024-02-28T02:04:33;92933.72;;;4.30;91.46
9690;BME280;4884;42.614;23.340;2024-02-28T02:06:59;92913.53;;;4.00;92.36
9690;BME280;4884;42.614;23.340;2024-02-28T02:09:25;92823.09;;;3.42;92.75
9690;BME280;4884;42.614;23.340;2024-02-28T02:11:51;92901.72;;;4.17;91.23
9690;BME280;4884;42.614;23.340;2024-02-28T02:14:16;92974.72;;;4.59;91.10
9690;BME280;4884;42.614;23.340;2024-02-28T02:16:42;93082.53;;;5.11;92.02
9690;BME280;4884;42.614;23.340;2024-02-28T02:19:08;92911.28;;;4.17;92.02
9690;BME280;4884;42.614;23.340;2024-02-28T02:21:38;93085.44;;;5.23;92.21
9690;BME280;4884;42.614;23.340;2024-02-28T02:24:06;93039.34;;;5.08;91.87
9690;BME280;4884;42.614;23.340;2024-02-28T02:26:31;92930.56;;;4.33;91.31
9690;BME280;4884;42.614;23.340;2024-02-28T02:28:56;92907.78;;;4.26;91.37
9690;BME280;4884;42.614;23.340;2024-02-28T02:31:22;93015.81;;;4.96;91.37
9690;BME280;4884;42.614;23.340;2024-02-28T02:33:48;93049.09;;;5.11;92.32
9690;BME280;4884;42.614;23.340;2024-02-28T02:36:13;93058.84;;;5.09;92.54
9690;BME280;4884;42.614;23.340;2024-02-28T02:38:38;93013.13;;;4.69;92.92
9690;BME280;4884;42.614;23.340;2024-02-28T02:41:04;92916.66;;;4.15;93.08
9690;BME280;4884;42.614;23.340;2024-02-28T02:43:29;93040.09;;;4.90;91.96
9690;BME280;4884;42.614;23.340;2024-02-28T02:45:54;93066.31;;;5.29;90.86
9690;BME280;4884;42.614;23.340;2024-02-28T02:48:20;92902.31;;;4.14;91.24
9690;BME280;4884;42.614;23.340;2024-02-28T02:50:45;92977.88;;;4.50;91.88
9690;BME280;4884;42.614;23.340;2024-02-28T02:53:11;93043.88;;;4.97;92.75
9690;BME280;4884;42.614;23.340;2024-02-28T02:55:36;93058.31;;;5.12;91.90
9690;BME280;4884;42.614;23.340;2024-02-28T02:58:02;93067.22;;;5.01;92.92
9690;BME280;4884;42.614;23.340;2024-02-28T03:00:28;93035.06;;;4.61;94.99
9690;BME280;4884;42.614;23.340;2024-02-28T03:02:53;92915.09;;;4.19;92.15
9690;BME280;4884;42.614;23.340;2024-02-28T03:05:18;93051.16;;;5.09;91.96
9690;BME280;4884;42.614;23.340;2024-02-28T03:07:44;93063.13;;;5.00;92.76
9690;BME280;4884;42.614;23.340;2024-02-28T03:10:09;92887.19;;;4.13;91.31
9690;BME280;4884;42.614;23.340;2024-02-28T03:12:35;93029.41;;;5.01;91.22
9690;BME280;4884;42.614;23.340;2024-02-28T03:15:01;93048.88;;;4.89;93.17
9690;BME280;4884;42.614;23.340;2024-02-28T03:17:28;93026.81;;;4.83;93.31
9690;BME280;4884;42.614;23.340;2024-02-28T03:19:53;93020.84;;;4.69;93.46
9690;BME280;4884;42.614;23.340;2024-02-28T03:22:19;93054.06;;;5.02;92.92
9690;BME280;4884;42.614;23.340;2024-02-28T03:24:44;92898.94;;;3.95;93.40
9690;BME280;4884;42.614;23.340;2024-02-28T03:27:09;93046.28;;;4.89;93.45
9690;BME280;4884;42.614;23.340;2024-02-28T03:29:35;92920.47;;;3.99;93.70
9690;BME280;4884;42.614;23.340;2024-02-28T03:32:00;93068.50;;;4.80;94.83
9690;BME280;4884;42.614;23.340;2024-02-28T03:34:25;93001.00;;;4.50;94.22
9690;BME280;4884;42.614;23.340;2024-02-28T03:36:51;93046.97;;;4.76;94.01
9690;BME280;4884;42.614;23.340;2024-02-28T03:39:16;92919.38;;;3.82;95.08
9690;BME280;4884;42.614;23.340;2024-02-28T03:41:42;93060.47;;;4.86;94.58
9690;BME280;4884;42.614;23.340;2024-02-28T03:44:08;93056.84;;;4.87;94.20
9690;BME280;4884;42.614;23.340;2024-02-28T03:46:33;93063.19;;;4.95;93.51
9690;BME280;4884;42.614;23.340;2024-02-28T03:48:58;92929.16;;;4.03;93.88
9690;BME280;4884;42.614;23.340;2024-02-28T03:51:24;93064.63;;;4.82;94.73
9690;BME280;4884;42.614;23.340;2024-02-28T03:53:49;92938.06;;;3.87;94.97
9690;BME280;4884;42.614;23.340;2024-02-28T03:56:41;93081.66;;;4.97;94.39
9690;BME280;4884;42.614;23.340;2024-02-28T03:59:06;93091.66;;;4.80;95.11
9690;BME280;4884;42.614;23.340;2024-02-28T04:01:32;92941.88;;;3.90;95.19
9690;BME280;4884;42.614;23.340;2024-02-28T04:03:57;92937.59;;;3.80;96.03
9690;BME280;4884;42.614;23.340;2024-02-28T04:06:23;92932.47;;;3.80;95.87
9690;BME280;4884;42.614;23.340;2024-02-28T04:08:48;93043.28;;;4.39;96.94
9690;BME280;4884;42.614;23.340;2024-02-28T04:11:14;92934.31;;;3.79;97.59
9690;BME280;4884;42.614;23.340;2024-02-28T04:13:40;92920.38;;;3.62;97.96
9690;BME280;4884;42.614;23.340;2024-02-28T04:16:07;93022.84;;;4.29;98.36
9690;BME280;4884;42.614;23.340;2024-02-28T04:18:32;93092.03;;;4.68;97.60
9690;BME280;4884;42.614;23.340;2024-02-28T04:20:58;93012.25;;;4.36;96.31
9690;BME280;4884;42.614;23.340;2024-02-28T04:23:24;93044.97;;;4.49;97.54
9690;BME280;4884;42.614;23.340;2024-02-28T04:25:49;92910.88;;;3.86;95.33
9690;BME280;4884;42.614;23.340;2024-02-28T04:28:14;92858.28;;;3.60;95.11
9690;BME280;4884;42.614;23.340;2024-02-28T04:30:40;92950.63;;;3.89;96.34
9690;BME280;4884;42.614;23.340;2024-02-28T04:33:05;93078.50;;;4.63;97.34
9690;BME280;4884;42.614;23.340;2024-02-28T04:35:30;93080.88;;;4.78;97.26
9690;BME280;4884;42.614;23.340;2024-02-28T04:37:56;93047.06;;;4.47;98.13
9690;BME280;4884;42.614;23.340;2024-02-28T04:40:21;92938.16;;;3.77;98.15
9690;BME280;4884;42.614;23.340;2024-02-28T04:42:47;93074.50;;;4.51;97.74
9690;BME280;4884;42.614;23.340;2024-02-28T04:45:12;92926.19;;;3.67;97.21
9690;BME280;4884;42.614;23.340;2024-02-28T04:47:38;93098.09;;;4.59;98.04
9690;BME280;4884;42.614;23.340;2024-02-28T04:50:04;93103.22;;;4.59;98.93
9690;BME280;4884;42.614;23.340;2024-02-28T04:52:30;92914.19;;;3.63;98.11
9690;BME280;4884;42.614;23.340;2024-02-28T04:54:56;93023.28;;;4.36;97.58
9690;BME280;4884;42.614;23.340;2024-02-28T04:57:21;92931.72;;;3.56;98.47
9690;BME280;4884;42.614;23.340;2024-02-28T04:59:47;92975.03;;;3.86;99.57
9690;BME280;4884;42.614;23.340;2024-02-28T05:02:12;93081.13;;;4.34;100.00
9690;BME280;4884;42.614;23.340;2024-02-28T05:04:38;93090.03;;;4.41;100.00
9690;BME280;4884;42.614;23.340;2024-02-28T05:07:03;92943.06;;;3.50;99.67
9690;BME280;4884;42.614;23.340;2024-02-28T05:09:29;93058.03;;;4.29;99.76
9690;BME280;4884;42.614;23.340;2024-02-28T05:11:54;92936.63;;;3.24;100.00
9690;BME280;4884;42.614;23.340;2024-02-28T05:14:20;93075.41;;;4.13;100.00
9690;BME280;4884;42.614;23.340;2024-02-28T05:16:47;93094.66;;;4.39;100.00
9690;BME280;4884;42.614;23.340;2024-02-28T05:19:12;92963.50;;;3.60;99.82
9690;BME280;4884;42.614;23.340;2024-02-28T05:21:45;93126.94;;;4.50;100.00
9690;BME280;4884;42.614;23.340;2024-02-28T05:24:11;93042.91;;;4.27;98.92
9690;BME280;4884;42.614;23.340;2024-02-28T05:26:37;93089.75;;;4.67;98.59
9690;BME280;4884;42.614;23.340;2024-02-28T05:29:03;92996.44;;;4.00;98.25
9690;BME280;4884;42.614;23.340;2024-02-28T05:31:29;92982.84;;;3.76;98.57
9690;BME280;4884;42.614;23.340;2024-02-28T05:33:57;93139.47;;;4.81;98.32
9690;BME280;4884;42.614;23.340;2024-02-28T05:36:23;92987.59;;;4.11;96.59
9690;BME280;4884;42.614;23.340;2024-02-28T05:38:49;93069.78;;;4.82;95.85
9690;BME280;4884;42.614;23.340;2024-02-28T05:41:18;93134.31;;;5.04;96.78
9690;BME280;4884;42.614;23.340;2024-02-28T05:43:44;93120.91;;;4.84;97.68
9690;BME280;4884;42.614;23.340;2024-02-28T05:46:10;93021.38;;;4.23;97.61
9690;BME280;4884;42.614;23.340;2024-02-28T05:48:36;93097.28;;;4.82;97.39
9690;BME280;4884;42.614;23.340;2024-02-28T05:51:01;93021.75;;;4.35;96.33
9690;BME280;4884;42.614;23.340;2024-02-28T05:53:28;93146.75;;;5.16;96.84
9690;BME280;4884;42.614;23.340;2024-02-28T05:55:57;93151.22;;;5.10;97.48
9690;BME280;4884;42.614;23.340;2024-02-28T05:58:23;93033.22;;;4.43;96.93
9690;BME280;4884;42.614;23.340;2024-02-28T06:00:49;93002.63;;;4.23;96.92
9690;BME280;4884;42.614;23.340;2024-02-28T06:03:14;93005.31;;;4.36;96.68
9690;BME280;4884;42.614;23.340;2024-02-28T06:05:40;93000.22;;;4.50;95.79
9690;BME280;4884;42.614;23.340;2024-02-28T06:08:05;93126.06;;;5.45;94.76
9690;BME280;4884;42.614;23.340;2024-02-28T06:10:31;93140.72;;;5.81;94.26
9690;BME280;4884;42.614;23.340;2024-02-28T06:12:56;93123.41;;;5.87;93.77
9690;BME280;4884;42.614;23.340;2024-02-28T06:15:21;93049.00;;;5.67;91.51
9690;BME280;4884;42.614;23.340;2024-02-28T06:17:47;93020.50;;;5.63;89.63
9690;BME280;4884;42.614;23.340;2024-02-28T06:20:12;93063.63;;;6.03;88.64
9690;BME280;4884;42.614;23.340;2024-02-28T06:22:37;93168.28;;;6.91;86.79
9690;BME280;4884;42.614;23.340;2024-02-28T06:25:03;93134.72;;;6.91;86.72
9690;BME280;4884;42.614;23.340;2024-02-28T06:27:32;93172.47;;;7.14;85.72
9690;BME280;4884;42.614;23.340;2024-02-28T06:29:59;93049.72;;;6.59;85.44
9690;BME280;4884;42.614;23.340;2024-02-28T06:32:24;93021.47;;;6.54;83.03
9690;BME280;4884;42.614;23.340;2024-02-28T06:34:50;93033.00;;;6.84;80.64
9690;BME280;4884;42.614;23.340;2024-02-28T06:37:15;93136.72;;;7.93;79.61
9690;BME280;4884;42.614;23.340;2024-02-28T06:39:41;93096.06;;;7.63;80.75
9690;BME280;4884;42.614;23.340;2024-02-28T06:42:07;93192.41;;;7.49;84.33
9690;BME280;4884;42.614;23.340;2024-02-28T06:44:32;93137.19;;;7.73;82.71
9690;BME280;4884;42.614;23.340;2024-02-28T06:46:58;93035.88;;;7.18;79.61
9690;BME280;4884;42.614;23.340;2024-02-28T06:49:23;93010.28;;;6.58;81.18
9690;BME280;4884;42.614;23.340;2024-02-28T06:51:49;93176.19;;;8.07;80.62
9690;BME280;4884;42.614;23.340;2024-02-28T06:54:14;93050.84;;;7.51;79.85
9690;BME280;4884;42.614;23.340;2024-02-28T06:56:40;93173.72;;;8.24;79.33
9690;BME280;4884;42.614;23.340;2024-02-28T06:59:05;93167.75;;;8.98;77.13
9690;BME280;4884;42.614;23.340;2024-02-28T07:01:32;93047.53;;;8.65;73.85
9690;BME280;4884;42.614;23.340;2024-02-28T07:03:57;93157.97;;;9.35;72.61
9690;BME280;4884;42.614;23.340;2024-02-28T07:06:23;93154.44;;;9.39;71.57
9690;BME280;4884;42.614;23.340;2024-02-28T07:08:48;93113.50;;;9.67;69.30
9690;BME280;4884;42.614;23.340;2024-02-28T07:11:14;93160.28;;;9.79;70.37
9690;BME280;4884;42.614;23.340;2024-02-28T07:13:40;93060.75;;;9.80;66.54
9690;BME280;4884;42.614;23.340;2024-02-28T07:16:06;93157.31;;;10.83;64.98
9690;BME280;4884;42.614;23.340;2024-02-28T07:18:31;93039.53;;;9.95;65.00
9690;BME280;4884;42.614;23.340;2024-02-28T07:20:57;93158.94;;;11.25;62.43
9690;BME280;4884;42.614;23.340;2024-02-28T07:23:22;93171.53;;;11.44;62.15
9690;BME280;4884;42.614;23.340;2024-02-28T07:25:48;93160.31;;;11.23;61.59
9690;BME280;4884;42.614;23.340;2024-02-28T07:28:13;93043.44;;;11.44;59.41
9690;BME280;4884;42.614;23.340;2024-02-28T07:30:38;93076.06;;;12.84;53.16
9690;BME280;4884;42.614;23.340;2024-02-28T07:33:05;93058.69;;;12.76;51.96
9690;BME280;4884;42.614;23.340;2024-02-28T07:35:31;93184.63;;;14.28;50.61
9690;BME280;4884;42.614;23.340;2024-02-28T07:37:56;93095.31;;;13.80;49.60
9690;BME280;4884;42.614;23.340;2024-02-28T07:40:21;93048.41;;;14.11;47.76
9690;BME280;4884;42.614;23.340;2024-02-28T07:42:47;93066.94;;;14.34;48.51
9690;BME280;4884;42.614;23.340;2024-02-28T07:45:12;93152.50;;;15.77;44.94
9690;BME280;4884;42.614;23.340;2024-02-28T07:47:37;93053.00;;;13.46;50.63
9690;BME280;4884;42.614;23.340;2024-02-28T07:50:04;93031.31;;;15.03;47.05
9690;BME280;4884;42.614;23.340;2024-02-28T07:52:29;93167.94;;;16.55;45.33
9690;BME280;4884;42.614;23.340;2024-02-28T07:54:54;93182.75;;;16.67;44.02
9690;BME280;4884;42.614;23.340;2024-02-28T07:57:20;93158.72;;;17.52;41.96
9690;BME280;4884;42.614;23.340;2024-02-28T07:59:45;93158.75;;;17.29;42.17
9690;BME280;4884;42.614;23.340;2024-02-28T08:02:11;93127.16;;;16.99;42.94
9690;BME280;4884;42.614;23.340;2024-02-28T08:04:39;93013.41;;;15.94;43.19
9690;BME280;4884;42.614;23.340;2024-02-28T08:07:05;93140.56;;;15.29;46.27
9690;BME280;4884;42.614;23.340;2024-02-28T08:09:31;93171.69;;;15.65;47.38
9690;BME280;4884;42.614;23.340;2024-02-28T08:11:56;93047.03;;;15.23;45.38
9690;BME280;4884;42.614;23.340;2024-02-28T08:14:23;93142.41;;;16.71;44.35
9690;BME280;4884;42.614;23.340;2024-02-28T08:16:48;93134.69;;;17.50;42.02
9690;BME280;4884;42.614;23.340;2024-02-28T08:19:14;93147.19;;;18.42;39.35
9690;BME280;4884;42.614;23.340;2024-02-28T08:21:39;93040.81;;;17.36;40.57
9690;BME280;4884;42.614;23.340;2024-02-28T08:24:05;93050.19;;;17.37;41.10
9690;BME280;4884;42.614;23.340;2024-02-28T08:26:31;93070.94;;;16.32;42.67
9690;BME280;4884;42.614;23.340;2024-02-28T08:28:56;93047.06;;;16.57;43.09
9690;BME280;4884;42.614;23.340;2024-02-28T08:31:22;93159.59;;;16.30;44.13
9690;BME280;4884;42.614;23.340;2024-02-28T08:33:48;93057.28;;;16.01;44.34
9690;BME280;4884;42.614;23.340;2024-02-28T08:36:13;93154.91;;;16.59;44.16
9690;BME280;4884;42.614;23.340;2024-02-28T08:38:39;93157.66;;;17.79;40.96
9690;BME280;4884;42.614;23.340;2024-02-28T08:41:05;93136.59;;;17.75;41.19
9690;BME280;4884;42.614;23.340;2024-02-28T08:43:30;93153.09;;;17.04;43.34
9690;BME280;4884;42.614;23.340;2024-02-28T08:45:55;93019.09;;;15.27;45.24
9690;BME280;4884;42.614;23.340;2024-02-28T08:48:21;93122.31;;;15.99;45.11
9690;BME280;4884;42.614;23.340;2024-02-28T08:50:46;93150.56;;;17.57;41.94
9690;BME280;4884;42.614;23.340;2024-02-28T08:53:12;93086.66;;;17.72;40.30
9690;BME280;4884;42.614;23.340;2024-02-28T08:55:37;93145.19;;;16.59;44.02
9690;BME280;4884;42.614;23.340;2024-02-28T08:58:03;93087.19;;;15.15;46.39
9690;BME280;4884;42.614;23.340;2024-02-28T09:00:28;93127.13;;;16.16;44.96
9690;BME280;4884;42.614;23.340;2024-02-28T09:02:54;93039.47;;;14.24;48.26
9690;BME280;4884;42.614;23.340;2024-02-28T09:05:19;93041.19;;;14.32;48.65
9690;BME280;4884;42.614;23.340;2024-02-28T09:07:44;93144.53;;;14.92;48.08
9690;BME280;4884;42.614;23.340;2024-02-28T09:10:11;93160.00;;;15.79;46.29
9690;BME280;4884;42.614;23.340;2024-02-28T09:12:36;93169.66;;;15.28;47.38
9690;BME280;4884;42.614;23.340;2024-02-28T09:15:02;93163.84;;;15.50;48.61
9690;BME280;4884;42.614;23.340;2024-02-28T09:17:27;93027.38;;;15.29;46.55
9690;BME280;4884;42.614;23.340;2024-02-28T09:19:53;93019.78;;;15.97;42.92
9690;BME280;4884;42.614;23.340;2024-02-28T09:22:19;93038.28;;;16.26;43.62
9690;BME280;4884;42.614;23.340;2024-02-28T09:24:46;93168.19;;;17.11;42.42
9690;BME280;4884;42.614;23.340;2024-02-28T09:27:12;93029.69;;;18.06;38.04
9690;BME280;4884;42.614;23.340;2024-02-28T09:29:37;93164.13;;;19.58;36.84
9690;BME280;4884;42.614;23.340;2024-02-28T09:32:03;93099.38;;;19.03;36.57
9690;BME280;4884;42.614;23.340;2024-02-28T09:34:29;93154.25;;;19.44;36.99
9690;BME280;4884;42.614;23.340;2024-02-28T09:36:54;93067.16;;;18.03;37.51
9690;BME280;4884;42.614;23.340;2024-02-28T09:39:19;93034.59;;;18.44;37.32
9690;BME280;4884;42.614;23.340;2024-02-28T09:41:48;93148.75;;;20.25;34.97
9690;BME280;4884;42.614;23.340;2024-02-28T09:44:16;93034.75;;;19.56;34.67
9690;BME280;4884;42.614;23.340;2024-02-28T09:46:41;93144.28;;;20.36;34.68
9690;BME280;4884;42.614;23.340;2024-02-28T09:49:08;93057.34;;;17.96;36.55
9690;BME280;4884;42.614;23.340;2024-02-28T09:51:35;93143.00;;;16.84;42.99
9690;BME280;4884;42.614;23.340;2024-02-28T09:54:04;93007.13;;;15.60;42.91
9690;BME280;4884;42.614;23.340;2024-02-28T09:56:33;93016.75;;;16.36;42.12
9690;BME280;4884;42.614;23.340;2024-02-28T09:59:00;93146.47;;;16.69;41.52
9690;BME280;4884;42.614;23.340;2024-02-28T10:01:27;93005.53;;;15.94;43.23
9690;BME280;4884;42.614;23.340;2024-02-28T10:03:54;93161.31;;;17.03;43.30
9690;BME280;4884;42.614;23.340;2024-02-28T10:06:20;93063.09;;;15.75;45.11
9690;BME280;4884;42.614;23.340;2024-02-28T10:08:46;93031.09;;;15.28;45.19
9690;BME280;4884;42.614;23.340;2024-02-28T10:11:21;93137.16;;;15.60;46.81
9690;BME280;4884;42.614;23.340;2024-02-28T10:13:50;93148.16;;;15.19;48.15
9690;BME280;4884;42.614;23.340;2024-02-28T10:16:15;92983.69;;;13.45;49.85
9690;BME280;4884;42.614;23.340;2024-02-28T10:18:45;93019.88;;;14.61;48.01
9690;BME280;4884;42.614;23.340;2024-02-28T10:21:11;93025.72;;;13.56;50.02
9690;BME280;4884;42.614;23.340;2024-02-28T10:23:44;92993.91;;;13.94;49.98
9690;BME280;4884;42.614;23.340;2024-02-28T10:26:10;93117.78;;;14.67;48.30
9690;BME280;4884;42.614;23.340;2024-02-28T10:28:41;93128.41;;;15.37;50.01
9690;BME280;4884;42.614;23.340;2024-02-28T10:31:08;92972.16;;;15.15;46.93
9690;BME280;4884;42.614;23.340;2024-02-28T10:33:35;93104.94;;;16.29;43.97
9690;BME280;4884;42.614;23.340;2024-02-28T10:36:02;92984.59;;;15.02;46.18
9690;BME280;4884;42.614;23.340;2024-02-28T10:38:28;93117.03;;;17.20;42.08
9690;BME280;4884;42.614;23.340;2024-02-28T10:40:54;93103.16;;;16.75;42.32
9690;BME280;4884;42.614;23.340;2024-02-28T10:43:20;93092.25;;;17.67;39.63
9690;BME280;4884;42.614;23.340;2024-02-28T10:45:46;92969.63;;;16.82;38.53
9690;BME280;4884;42.614;23.340;2024-02-28T10:48:14;93106.31;;;19.76;34.29
9690;BME280;4884;42.614;23.340;2024-02-28T10:50:40;93102.31;;;19.38;36.19
9690;BME280;4884;42.614;23.340;2024-02-28T10:53:13;92976.34;;;20.37;32.08
9690;BME280;4884;42.614;23.340;2024-02-28T10:55:42;92996.16;;;21.93;29.77
9690;BME280;4884;42.614;23.340;2024-02-28T10:58:11;93102.22;;;21.81;30.22
9690;BME280;4884;42.614;23.340;2024-02-28T11:00:38;93046.09;;;21.17;29.98
9690;BME280;4884;42.614;23.340;2024-02-28T11:03:04;92981.66;;;19.47;32.48
9690;BME280;4884;42.614;23.340;2024-02-28T11:05:41;93089.44;;;20.87;29.44
9690;BME280;4884;42.614;23.340;2024-02-28T11:08:11;93006.97;;;19.66;30.43
9690;BME280;4884;42.614;23.340;2024-02-28T11:10:42;93065.09;;;20.18;31.30
9690;BME280;4884;42.614;23.340;2024-02-28T11:13:09;92955.97;;;20.23;28.88
9690;BME280;4884;42.614;23.340;2024-02-28T11:15:36;93044.16;;;21.63;28.76
9690;BME280;4884;42.614;23.340;2024-02-28T11:18:08;93076.59;;;20.89;28.75
9690;BME280;4884;42.614;23.340;2024-02-28T11:20:35;92964.50;;;19.09;32.39
9690;BME280;4884;42.614;23.340;2024-02-28T11:23:00;93055.59;;;18.44;34.71
9690;BME280;4884;42.614;23.340;2024-02-28T11:25:26;93052.75;;;17.89;36.88
9690;BME280;4884;42.614;23.340;2024-02-28T11:27:52;92944.75;;;17.28;36.37
9690;BME280;4884;42.614;23.340;2024-02-28T11:30:17;92938.25;;;18.15;34.77
9690;BME280;4884;42.614;23.340;2024-02-28T11:32:43;93084.25;;;19.36;35.62
9690;BME280;4884;42.614;23.340;2024-02-28T11:35:09;93050.59;;;19.67;33.83
9690;BME280;4884;42.614;23.340;2024-02-28T11:37:38;92933.63;;;19.68;32.29
9690;BME280;4884;42.614;23.340;2024-02-28T11:40:07;93036.06;;;20.01;33.39
9690;BME280;4884;42.614;23.340;2024-02-28T11:42:34;92931.66;;;18.82;35.19
9690;BME280;4884;42.614;23.340;2024-02-28T11:44:59;93053.72;;;19.93;34.73
9690;BME280;4884;42.614;23.340;2024-02-28T11:47:25;93056.25;;;20.93;32.58
9690;BME280;4884;42.614;23.340;2024-02-28T11:49:51;93033.91;;;20.21;33.40
9690;BME280;4884;42.614;23.340;2024-02-28T11:52:16;93034.44;;;19.14;34.07
9690;BME280;4884;42.614;23.340;2024-02-28T11:54:41;92982.00;;;20.53;31.75
9690;BME280;4884;42.614;23.340;2024-02-28T11:57:11;93045.09;;;18.07;36.24
9690;BME280;4884;42.614;23.340;2024-02-28T11:59:39;93017.88;;;17.03;38.54
9690;BME280;4884;42.614;23.340;2024-02-28T12:02:13;92895.31;;;16.97;38.61
9690;BME280;4884;42.614;23.340;2024-02-28T12:04:40;93008.97;;;17.38;40.73
9690;BME280;4884;42.614;23.340;2024-02-28T12:07:06;92953.03;;;16.29;39.97
9690;BME280;4884;42.614;23.340;2024-02-28T12:09:32;92987.78;;;15.65;42.76
9690;BME280;4884;42.614;23.340;2024-02-28T12:12:00;93017.66;;;16.02;45.44
9690;BME280;4884;42.614;23.340;2024-02-28T12:14:26;92928.84;;;14.79;44.73
9690;BME280;4884;42.614;23.340;2024-02-28T12:16:52;93024.97;;;15.55;44.66
9690;BME280;4884;42.614;23.340;2024-02-28T12:19:17;92909.56;;;15.79;42.17
9690;BME280;4884;42.614;23.340;2024-02-28T12:21:45;93021.66;;;16.38;43.60
9690;BME280;4884;42.614;23.340;2024-02-28T12:24:10;92879.53;;;15.73;41.16
9690;BME280;4884;42.614;23.340;2024-02-28T12:26:39;92931.09;;;15.34;42.82
9690;BME280;4884;42.614;23.340;2024-02-28T12:29:05;93021.19;;;15.52;44.11
9690;BME280;4884;42.614;23.340;2024-02-28T12:31:31;92890.41;;;14.79;43.99
9690;BME280;4884;42.614;23.340;2024-02-28T12:33:56;93007.00;;;15.38;43.78
9690;BME280;4884;42.614;23.340;2024-02-28T12:36:21;92871.72;;;14.77;43.26
9690;BME280;4884;42.614;23.340;2024-02-28T12:38:47;92954.06;;;15.06;44.29
9690;BME280;4884;42.614;23.340;2024-02-28T12:41:13;92944.50;;;15.14;45.12
9690;BME280;4884;42.614;23.340;2024-02-28T12:43:39;93020.81;;;16.11;44.47
9690;BME280;4884;42.614;23.340;2024-02-28T12:46:07;92979.66;;;15.51;45.90
9690;BME280;4884;42.614;23.340;2024-02-28T12:48:39;92995.41;;;16.12;44.62
9690;BME280;4884;42.614;23.340;2024-02-28T12:51:05;92925.38;;;15.86;44.07
9690;BME280;4884;42.614;23.340;2024-02-28T12:53:31;92878.34;;;15.29;43.79
9690;BME280;4884;42.614;23.340;2024-02-28T12:55:56;92879.78;;;14.53;46.73
9690;BME280;4884;42.614;23.340;2024-02-28T12:58:22;92999.75;;;15.12;48.55
9690;BME280;4884;42.614;23.340;2024-02-28T13:00:48;92881.56;;;14.18;47.53
9690;BME280;4884;42.614;23.340;2024-02-28T13:03:14;92997.13;;;14.46;49.22
9690;BME280;4884;42.614;23.340;2024-02-28T13:05:41;93004.50;;;14.91;48.11
9690;BME280;4884;42.614;23.340;2024-02-28T13:08:06;93015.91;;;14.83;49.00
9690;BME280;4884;42.614;23.340;2024-02-28T13:10:32;93016.34;;;14.85;48.87